This is the latest recevied weather packets stored in our database for station/object SQ5SUI-3. If no packets are shown the sender has not sent any weather packets the latest 10 day(s).
| Time | Temp. | Humidity | Pressure | Rain* | Wind** | Luminosity | Snow |
|---|---|---|---|---|---|---|---|
| 1778209410 | 10° C | 90% | 1011 hPa | 0 mm | - | - | - |
| 1778207609 | 10.56° C | 89% | 1011.3 hPa | 0 mm | - | - | - |
| 1778205808 | 10.56° C | 89% | 1011.6 hPa | 0 mm | - | - | - |
| 1778204010 | 10.56° C | 90% | 1011.7 hPa | 0 mm | - | - | - |
| 1778202209 | 10.56° C | 90% | 1011.9 hPa | 0 mm | - | - | - |
| 1778200409 | 10.56° C | 91% | 1011.9 hPa | 0 mm | - | - | - |
| 1778198609 | 10.56° C | 92% | 1012.1 hPa | 0 mm | - | - | - |
| 1778196809 | 11.11° C | 92% | 1011.9 hPa | 0 mm | - | - | - |
| 1778195008 | 11.11° C | 91% | 1011.8 hPa | 0 mm | - | - | - |
| 1778193209 | 11.11° C | 90% | 1011.8 hPa | 0 mm | - | - | - |
| 1778191409 | 11.11° C | 90% | 1012.1 hPa | 0 mm | - | - | - |
| 1778189608 | 11.67° C | 92% | 1012.5 hPa | 0 mm | - | - | - |
| 1778187810 | 11.67° C | 94% | 1012.8 hPa | 0.25 mm | - | - | - |
| 1778186010 | 12.22° C | 91% | 1013 hPa | 0.51 mm | - | - | - |
| 1778184210 | 12.22° C | 87% | 1013.5 hPa | 0.25 mm | - | - | - |
| 1778182409 | 12.78° C | 85% | 1013.3 hPa | 0 mm | - | - | - |
| 1778180609 | 13.33° C | 85% | 1013.3 hPa | 0 mm | - | - | - |
| 1778178810 | 13.89° C | 83% | 1013.6 hPa | 0 mm | - | - | - |
| 1778177010 | 14.44° C | 77% | 1014.1 hPa | 0 mm | - | - | - |
| 1778175210 | 15.56° C | 72% | 1014.9 hPa | 0 mm | - | - | - |
| 1778173409 | 16.11° C | 69% | 1015.5 hPa | 0 mm | - | - | - |
| 1778171610 | 16.67° C | 67% | 1016 hPa | 0 mm | - | - | - |
| 1778169809 | 17.22° C | 64% | 1015.9 hPa | 0 mm | - | - | - |
| 1778168009 | 17.78° C | 62% | 1016.1 hPa | 0 mm | - | - | - |
| 1778166208 | 18.33° C | 62% | 1016.2 hPa | 0 mm | - | - | - |
* Rain latest hour (hover to see other rain measurements)
** Current wind speed in m/s (hover to see current wind gust speed)